Observations for PESCARA, Italy (LIBP)

LIBP 162350Z AUTO 24007KT 9999 NCD 18/13 Q1014  
LIBP 162250Z AUTO 24006KT 9999 NCD 18/13 Q1014  
LIBP 162150Z AUTO 23006KT 9999 NCD 19/13 Q1014  
LIBP 162050Z 23006KT CAVOK 20/14 Q1013  
LIBP 161950Z 22005KT CAVOK 22/14 Q1013  
LIBP 161850Z 32004KT 270V360 CAVOK 24/14 Q1012  
LIBP 161750Z 36008KT 320V030 CAVOK 26/14 Q1012  
LIBP 161650Z 35008KT CAVOK 27/11 Q1012  
LIBP 161550Z 34008KT 300V020 CAVOK 27/11 Q1012  
LIBP 161450Z 35011KT 310V030 CAVOK 27/14 Q1011  
LIBP 161350Z 35011KT 330V030 CAVOK 27/14 Q1012  
LIBP 161250Z 34010KT 300V040 CAVOK 26/14 Q1012  
LIBP 161150Z 36011KT 320V040 CAVOK 26/15 Q1011  
LIBP 161050Z 36011KT 330V030 CAVOK 26/16 Q1011  
LIBP 160950Z 36012KT 330V030 9999 FEW030 26/15 Q1011
LIBP 160750Z 33007KT 270V020 9999 SCT030 24/17 Q1011
LIBP 160650Z 22005KT 9999 SCT030 22/16 Q1010
LIBP 160550Z 22005KT 9999 SCT030 21/17 Q1010
LIBP 160450Z AUTO 22005KT 9999 FEW045/// 20/17 Q1010
LIBP 160450Z AUTO 22005KT 9999 FEW045 20/17 Q1010
LIBP 160350Z AUTO 22004KT 9999 BKN038/// BKN065/// BKN160/// 19/17 Q1009
LIBP 160350Z AUTO 22004KT 9999 BKN038 BKN065 BKN160 19/17 Q1009
LIBP 160250Z AUTO 20005KT 9999 OVC076/// 20/16 Q1010
LIBP 160250Z AUTO 20005KT 9999 OVC076 20/16 Q1010
LIBP 160150Z AUTO 21004KT 9999 OVC096/// 20/15 Q1010
LIBP 160150Z AUTO 21004KT 9999 OVC096 20/15 Q1010
LIBP 160050Z AUTO 21006KT 9999 BKN076/// OVC095/// 20/16 Q1010  
LIBP 160050Z AUTO 21006KT 9999 BKN076 OVC095 20/16 Q1010
LIBP 152350Z AUTO 24003KT 200V280 9999 FEW035/// BKN072/// BKN095/// 20/18 Q1010
LIBP 152350Z AUTO 24003KT 200V280 9999 FEW035 BKN072 BKN095 20/18 Q1010